• Join FlightAware (Why Join?)
  • Login
  • US Flag 
10:11AM EDT


 

Airport Tracker/Info


-or-


 

Live Flight TrackerFlight Track Log ✈ AFL150 ✈ 12-Jan-2014 ✈ UUEE / SVO - MUHA / HAV

Flight Track Log - Related Links

Times and Time Zones

All times are in EST time to prevent confusion due to time zone crossing. See the AFL150 flight status page for this flight to view local times or setup timezone preferences in your user account.

Time Position Orientation Groundspeed Altitude Reporting Facility
EST Latitude Longitude Course Direction KTS MPH feet Rate Location/Type
04:55AM 56.0591 37.0519 321° Northwest  Level FlightAware Approximate
04:56AM 56.1489 36.9184 320° Northwest  Level FlightAware Approximate
04:57AM 56.2387 36.7842 320° Northwest  Level FlightAware Approximate
04:58AM 56.3283 36.6495 320° Northwest  Level FlightAware Approximate
04:59AM 56.4177 36.5141 320° Northwest  Level FlightAware Approximate
05:00AM 56.5070 36.3781 320° Northwest  Level FlightAware Approximate
05:01AM 56.5961 36.2414 320° Northwest  Level FlightAware Approximate
05:02AM 56.6851 36.1041 320° Northwest  Level FlightAware Approximate
05:03AM 56.7739 35.9661 320° Northwest  Level FlightAware Approximate
05:04AM 56.8626 35.8275 320° Northwest  Level FlightAware Approximate
05:05AM 56.9512 35.6882 319° Northwest  Level FlightAware Approximate
05:06AM 57.0396 35.5483 319° Northwest  Level FlightAware Approximate
05:07AM 57.1278 35.4077 319° Northwest  Level FlightAware Approximate
05:08AM 57.2159 35.2664 319° Northwest  Level FlightAware Approximate
05:09AM 57.3038 35.1245 319° Northwest  Level FlightAware Approximate
05:10AM 57.3915 34.9818 319° Northwest  Level FlightAware Approximate
05:11AM 57.4791 34.8385 319° Northwest  Level FlightAware Approximate
05:12AM 57.5665 34.6945 319° Northwest  Level FlightAware Approximate
05:13AM 57.6538 34.5498 318° Northwest  Level FlightAware Approximate
05:14AM 57.6352 34.5654 314° West  Level FlightAware Approximate
05:15AM 57.7158 34.4074 314° West  Level FlightAware Approximate
05:16AM 57.7961 34.2487 314° West  Level FlightAware Approximate
05:17AM 57.8762 34.0893 313° West  Level FlightAware Approximate
05:18AM 57.9562 33.9292 313° West  Level FlightAware Approximate
05:19AM 58.0359 33.7683 313° West  Level FlightAware Approximate
05:20AM 58.1154 33.6068 313° West  Level FlightAware Approximate
05:21AM 58.1947 33.4445 313° West  Level FlightAware Approximate
05:22AM 58.2738 33.2815 313° West  Level FlightAware Approximate
05:23AM 58.3527 33.1178 313° West  Level FlightAware Approximate
05:24AM 58.4314 32.9534 312° West  Level FlightAware Approximate
05:25AM 58.5099 32.7882 312° West  Level FlightAware Approximate
05:26AM 58.5882 32.6222 312° West  Level FlightAware Approximate
05:27AM 58.6662 32.4556 312° West  Level FlightAware Approximate
05:28AM 58.7440 32.2881 312° West  Level FlightAware Approximate
05:29AM 58.8217 32.1200 312° West  Level FlightAware Approximate
05:30AM 58.8991 31.9510 312° West  Level FlightAware Approximate
05:31AM 58.9762 31.7814 311° West  Level FlightAware Approximate
05:32AM 59.0532 31.6109 311° West  Level FlightAware Approximate
05:33AM 59.1299 31.4397 311° West  Level FlightAware Approximate
05:34AM 59.2064 31.2677 311° West  Level FlightAware Approximate
05:35AM 59.2827 31.0950 311° West  Level FlightAware Approximate
05:36AM 59.3587 30.9215 311° West  Level FlightAware Approximate
05:37AM 59.4346 30.7472 311° West  Level FlightAware Approximate
05:38AM 59.5101 30.5721 310° West  Level FlightAware Approximate
05:39AM 59.5855 30.3962 310° West  Level FlightAware Approximate
05:40AM 59.6606 30.2196 310° West  Level FlightAware Approximate
05:41AM 59.7355 30.0422 310° West  Level FlightAware Approximate
05:42AM 59.8101 29.8639 310° West  Level FlightAware Approximate
05:43AM 59.8845 29.6849 310° West  Level FlightAware Approximate
05:44AM 59.9586 29.5050 310° West  Level FlightAware Approximate
05:45AM 60.0325 29.3244 309° West  Level FlightAware Approximate
05:46AM 60.1062 29.1429 309° West  Level FlightAware Approximate
05:47AM 60.1796 28.9607 309° West  Level FlightAware Approximate
05:48AM 60.2527 28.7776 309° West  Level FlightAware Approximate
05:49AM 60.3256 28.5937 309° West  Level FlightAware Approximate
05:50AM 60.3983 28.4090 309° West  Level FlightAware Approximate
05:51AM 60.4706 28.2234 308° West  Level FlightAware Approximate
05:52AM 60.5428 28.0370 308° West  Level FlightAware Approximate
05:53AM 60.6146 27.8498 308° West  Level FlightAware Approximate
05:54AM 60.6862 27.6618 308° West  Level FlightAware Approximate
05:55AM 60.7576 27.4729 308° West  Level FlightAware Approximate
05:56AM 60.8286 27.2832 308° West  Level FlightAware Approximate
05:57AM 60.8994 27.0926 307° West  Level FlightAware Approximate
05:58AM 60.9700 26.9012 307° West  Level FlightAware Approximate
05:59AM 61.0402 26.7090 307° West  Level FlightAware Approximate
06:00AM 61.1102 26.5159 307° West  Level FlightAware Approximate
06:01AM 61.1799 26.3219 307° West  Level FlightAware Approximate
06:02AM 61.2493 26.1271 307° West  Level FlightAware Approximate
06:03AM 61.3185 25.9314 306° West  Level FlightAware Approximate
06:04AM 61.3874 25.7348 306° West  Level FlightAware Approximate
06:05AM 61.4559 25.5374 306° West  Level FlightAware Approximate
06:06AM 61.5242 25.3391 306° West  Level FlightAware Approximate
06:07AM 61.5922 25.1400 306° West  Level FlightAware Approximate
06:08AM 61.6600 24.9400 306° West  Level FlightAware Approximate
06:09AM 61.7274 24.7391 305° West  Level FlightAware Approximate
06:10AM 61.7945 24.5373 305° West  Level FlightAware Approximate
06:11AM 61.8613 24.3346 305° West  Level FlightAware Approximate
06:12AM 61.9279 24.1311 305° West  Level FlightAware Approximate
06:13AM 61.9941 23.9266 305° West  Level FlightAware Approximate
06:14AM 62.0600 23.7213 304° West  Level FlightAware Approximate
06:15AM 62.1256 23.5151 304° West  Level FlightAware Approximate
06:16AM 62.1910 23.3080 304° West  Level FlightAware Approximate
06:17AM 62.2560 23.1000 304° West  Level FlightAware Approximate
06:18AM 62.3206 22.8911 304° West  Level FlightAware Approximate
06:19AM 62.3850 22.6813 304° West  Level FlightAware Approximate
06:20AM 62.4491 22.4706 303° West  Level FlightAware Approximate
06:21AM 62.5128 22.2590 303° West  Level FlightAware Approximate
06:22AM 62.5762 22.0465 303° West  Level FlightAware Approximate
06:23AM 62.6393 21.8331 303° West  Level FlightAware Approximate
06:24AM 62.7021 21.6188 303° West  Level FlightAware Approximate
06:25AM 62.7645 21.4035 302° West  Level FlightAware Approximate
06:26AM 62.8266 21.1874 302° West  Level FlightAware Approximate
06:27AM 62.8884 20.9704 302° West  Level FlightAware Approximate
06:28AM 62.9499 20.7524 302° West  Level FlightAware Approximate
06:29AM 63.0110 20.5335 302° West  Level FlightAware Approximate
06:30AM 63.0717 20.3137 301° West  Level FlightAware Approximate
06:31AM 63.1321 20.0930 301° West  Level FlightAware Approximate
06:32AM 63.1922 19.8714 301° West  Level FlightAware Approximate
06:33AM 63.2520 19.6488 301° West  Level FlightAware Approximate
06:34AM 63.3113 19.4253 301° West  Level FlightAware Approximate
06:35AM 63.3704 19.2010 300° West  Level FlightAware Approximate
06:36AM 63.4291 18.9756 300° West  Level FlightAware Approximate
06:37AM 63.4874 18.7494 300° West  Level FlightAware Approximate
06:38AM 63.5453 18.5222 300° West  Level FlightAware Approximate
06:39AM 63.6029 18.2942 300° West  Level FlightAware Approximate
06:40AM 63.6602 18.0652 299° West  Level FlightAware Approximate
06:41AM 63.7170 17.8352 299° West  Level FlightAware Approximate
06:42AM 63.7735 17.6044 299° West  Level FlightAware Approximate
06:43AM 63.8297 17.3726 299° West  Level FlightAware Approximate
06:44AM 63.8854 17.1399 299° West  Level FlightAware Approximate
06:45AM 63.9408 16.9063 298° West  Level FlightAware Approximate
06:46AM 63.9958 16.6717 298° West  Level FlightAware Approximate
06:47AM 64.0505 16.4363 298° West  Level FlightAware Approximate
06:48AM 64.1047 16.1999 298° West  Level FlightAware Approximate
06:49AM 64.1586 15.9626 298° West  Level FlightAware Approximate
06:50AM 64.2121 15.7244 297° West  Level FlightAware Approximate
06:51AM 64.2652 15.4853 297° West  Level FlightAware Approximate
06:52AM 64.3179 15.2452 297° West  Level FlightAware Approximate
06:53AM 64.3702 15.0042 297° West  Level FlightAware Approximate
06:54AM 64.4221 14.7623 297° West  Level FlightAware Approximate
06:55AM 64.4736 14.5195 296° West  Level FlightAware Approximate
06:56AM 64.5247 14.2758 296° West  Level FlightAware Approximate
06:57AM 64.5754 14.0312 296° West  Level FlightAware Approximate
06:58AM 64.6257 13.7856 296° West  Level FlightAware Approximate
06:59AM 64.6756 13.5392 295° West  Level FlightAware Approximate
07:00AM 64.7250 13.2918 295° West  Level FlightAware Approximate
07:01AM 64.7741 13.0436 295° West  Level FlightAware Approximate
07:02AM 64.8227 12.7944 295° West  Level FlightAware Approximate
07:03AM 64.8709 12.5444 295° West  Level FlightAware Approximate
07:04AM 64.9187 12.2934 294° West  Level FlightAware Approximate
07:05AM 64.9661 12.0416 294° West  Level FlightAware Approximate
07:06AM 65.0131 11.7889 294° West  Level FlightAware Approximate
07:07AM 65.0596 11.5353 294° West  Level FlightAware Approximate
07:08AM 65.1057 11.2808 293° West  Level FlightAware Approximate
07:09AM 65.1514 11.0254 293° West  Level FlightAware Approximate
07:10AM 65.1966 10.7691 293° West  Level FlightAware Approximate
07:11AM 65.2414 10.5120 293° West  Level FlightAware Approximate
07:12AM 65.2857 10.2540 292° West  Level FlightAware Approximate
07:13AM 65.3297 9.9952 292° West  Level FlightAware Approximate
07:14AM 65.3731 9.7354 292° West  Level FlightAware Approximate
07:15AM 65.4161 9.4749 292° West  Level FlightAware Approximate
07:16AM 65.4587 9.2134 292° West  Level FlightAware Approximate
07:17AM 65.5008 8.9511 291° West  Level FlightAware Approximate
07:18AM 65.5424 8.6880 291° West  Level FlightAware Approximate
07:19AM 65.5836 8.4241 291° West  Level FlightAware Approximate
07:20AM 65.6244 8.1593 291° West  Level FlightAware Approximate
07:21AM 65.6647 7.8937 290° West  Level FlightAware Approximate
07:22AM 65.7045 7.6272 290° West  Level FlightAware Approximate
07:23AM 65.7438 7.3600 290° West  Level FlightAware Approximate
07:24AM 65.7827 7.0919 290° West  Level FlightAware Approximate
07:25AM 65.8211 6.8230 289° West  Level FlightAware Approximate
07:26AM 65.8591 6.5533 289° West  Level FlightAware Approximate
07:27AM 65.8965 6.2829 289° West  Level FlightAware Approximate
07:28AM 65.9335 6.0116 289° West  Level FlightAware Approximate
07:29AM 65.9700 5.7396 288° West  Level FlightAware Approximate
07:30AM 66.0061 5.4668 288° West  Level FlightAware Approximate
07:31AM 66.0416 5.1932 288° West  Level FlightAware Approximate
07:32AM 66.0766 4.9189 288° West  Level FlightAware Approximate
07:33AM 66.1112 4.6438 287° West  Level FlightAware Approximate
07:34AM 66.1453 4.3680 287° West  Level FlightAware Approximate
07:35AM 66.1789 4.0914 287° West  Level FlightAware Approximate
07:36AM 66.2120 3.8141 287° West  Level FlightAware Approximate
07:37AM 66.2446 3.5361 286° West  Level FlightAware Approximate
07:38AM 66.2766 3.2574 286° West  Level FlightAware Approximate
07:39AM 66.3082 2.9779 286° West  Level FlightAware Approximate
07:40AM 66.3393 2.6978 286° West  Level FlightAware Approximate
07:41AM 66.3699 2.4170 285° West  Level FlightAware Approximate
07:42AM 66.4000 2.1355 285° West  Level FlightAware Approximate
07:43AM 66.4296 1.8533 285° West  Level FlightAware Approximate
07:44AM 66.4586 1.5705 285° West  Level FlightAware Approximate
07:45AM 66.4872 1.2870 284° West  Level FlightAware Approximate
07:46AM 66.5152 1.0028 284° West  Level FlightAware Approximate
07:47AM 66.5427 0.7181 284° West  Level FlightAware Approximate
07:48AM 66.5697 0.4327 284° West  Level FlightAware Approximate
07:49AM 66.5962 0.1467 283° West  Level FlightAware Approximate
07:50AM 66.6222 -0.1400 283° West  Level FlightAware Approximate
07:51AM 66.6476 -0.4272 283° West  Level FlightAware Approximate
07:52AM 66.6725 -0.7150 282° West  Level FlightAware Approximate
07:53AM 66.6969 -1.0033 282° West  Level FlightAware Approximate
07:54AM 66.7207 -1.2923 282° West  Level FlightAware Approximate
07:55AM 66.7440 -1.5818 282° West  Level FlightAware Approximate
07:56AM 66.7668 -1.8718 281° West  Level FlightAware Approximate
07:57AM 66.7891 -2.1624 281° West  Level FlightAware Approximate
07:58AM 66.8108 -2.4534 281° West  Level FlightAware Approximate
07:59AM 66.8320 -2.7450 281° West  Level FlightAware Approximate
08:00AM 66.8527 -3.0371 280° West  Level FlightAware Approximate
08:01AM 66.8728 -3.3297 280° West  Level FlightAware Approximate
08:02AM 66.8923 -3.6228 280° West  Level FlightAware Approximate
08:03AM 66.9114 -3.9163 280° West  Level FlightAware Approximate
08:04AM 66.9299 -4.2102 279° West  Level FlightAware Approximate
08:05AM 66.9478 -4.5047 279° West  Level FlightAware Approximate
08:06AM 66.9652 -4.7995 279° West  Level FlightAware Approximate
08:07AM 66.9820 -5.0947 278° West  Level FlightAware Approximate
08:08AM 66.9984 -5.3904 278° West  Level FlightAware Approximate
08:09AM 67.0141 -5.6864 278° West  Level FlightAware Approximate
08:10AM 67.0293 -5.9828 278° West  Level FlightAware Approximate
08:11AM 67.0440 -6.2796 277° West  Level FlightAware Approximate
08:12AM 67.0581 -6.5767 277° West  Level FlightAware Approximate
08:13AM 67.0716 -6.8742 277° West  Level FlightAware Approximate
08:14AM 67.0846 -7.1720 277° West  Level FlightAware Approximate
08:15AM 67.0970 -7.4701 276° West  Level FlightAware Approximate
08:16AM 67.1089 -7.7685 276° West  Level FlightAware Approximate
08:17AM 67.1202 -8.0672 276° West  Level FlightAware Approximate
08:18AM 67.1310 -8.3662 275° West  Level FlightAware Approximate
08:19AM 67.1412 -8.6654 275° West  Level FlightAware Approximate
08:20AM 67.1508 -8.9649 275° West  Level FlightAware Approximate
08:21AM 67.1599 -9.2646 275° West  Level FlightAware Approximate
08:22AM 67.1684 -9.5646 274° West  Level FlightAware Approximate
08:23AM 67.1764 -9.8647 274° West  Level FlightAware Approximate
08:24AM 67.1837 -10.1650 274° West  Level FlightAware Approximate
08:25AM 67.1906 -10.4655 273° West  Level FlightAware Approximate
08:26AM 67.1969 -10.7662 273° West  Level FlightAware Approximate
08:27AM 67.2026 -11.0670 273° West  Level FlightAware Approximate
08:28AM 67.2077 -11.3679 273° West  Level FlightAware Approximate
08:29AM 67.2123 -11.6690 272° West  Level FlightAware Approximate
08:30AM 67.2163 -11.9702 272° West  Level FlightAware Approximate
08:31AM 67.2197 -12.2715 272° West  Level FlightAware Approximate
08:32AM 67.2226 -12.5728 272° West  Level FlightAware Approximate
08:33AM 67.2249 -12.8742 271° West  Level FlightAware Approximate
08:34AM 67.2266 -13.1757 271° West  Level FlightAware Approximate
08:35AM 67.2278 -13.4772 271° West  Level FlightAware Approximate
08:36AM 67.2284 -13.7787 270° West  Level FlightAware Approximate
08:37AM 67.2285 -14.0802 270° West  Level FlightAware Approximate
08:38AM 67.2280 -14.3818 270° West  Level FlightAware Approximate
08:39AM 67.2269 -14.6833 270° West  Level FlightAware Approximate
08:40AM 67.2252 -14.9847 269° West  Level FlightAware Approximate
08:41AM 67.2230 -15.2861 269° West  Level FlightAware Approximate
08:42AM 67.2202 -15.5875 269° West  Level FlightAware Approximate
08:43AM 67.2169 -15.8888 268° West  Level FlightAware Approximate
08:44AM 67.2130 -16.1900 268° West  Level FlightAware Approximate
08:45AM 67.2085 -16.4911 268° West  Level FlightAware Approximate
08:46AM 67.2034 -16.7920 268° West  Level FlightAware Approximate
08:47AM 67.1978 -17.0929 267° West  Level FlightAware Approximate
08:48AM 67.1917 -17.3936 267° West  Level FlightAware Approximate
08:49AM 67.1849 -17.6941 267° West  Level FlightAware Approximate
08:50AM 67.1776 -17.9944 267° West  Level FlightAware Approximate
08:51AM 67.1697 -18.2946 266° West  Level FlightAware Approximate
08:52AM 67.1613 -18.5946 266° West  Level FlightAware Approximate
08:53AM 67.1523 -18.8943 266° West  Level FlightAware Approximate
08:54AM 67.1428 -19.1938 265° West  Level FlightAware Approximate
08:55AM 67.1327 -19.4931 265° West  Level FlightAware Approximate
08:56AM 67.1220 -19.7921 265° West  Level FlightAware Approximate
08:57AM 67.1108 -20.0908 265° West  Level FlightAware Approximate
08:58AM 67.0990 -20.3893 264° West  Level FlightAware Approximate
08:59AM 67.0867 -20.6875 264° West  Level FlightAware Approximate
09:00AM 67.0738 -20.9853 264° West  Level FlightAware Approximate
09:01AM 67.0603 -21.2828 264° West  Level FlightAware Approximate
09:02AM 67.0463 -21.5800 263° West  Level FlightAware Approximate
09:03AM 67.0318 -21.8769 263° West  Level FlightAware Approximate
09:04AM 67.0167 -22.1733 263° West  Level FlightAware Approximate
09:05AM 67.0010 -22.4694 262° West  Level FlightAware Approximate
09:06AM 66.9848 -22.7652 262° West  Level FlightAware Approximate
09:07AM 66.9680 -23.0605 262° West  Level FlightAware Approximate
09:08AM 66.9507 -23.3554 262° West  Level FlightAware Approximate
09:09AM 66.9329 -23.6499 261° West  Level FlightAware Approximate
09:10AM 66.9145 -23.9439 261° West  Level FlightAware Approximate
09:11AM 66.8955 -24.2375 261° West  Level FlightAware Approximate
09:12AM 66.8761 -24.5306 261° West  Level FlightAware Approximate
09:13AM 66.8560 -24.8233 260° West  Level FlightAware Approximate
09:14AM 66.8355 -25.1155 260° West  Level FlightAware Approximate
09:15AM 66.8144 -25.4071 260° West  Level FlightAware Approximate
09:16AM 66.7927 -25.6983 259° West  Level FlightAware Approximate
09:17AM 66.7706 -25.9890 259° West  Level FlightAware Approximate
09:18AM 66.7479 -26.2791 259° West  Level FlightAware Approximate
09:19AM 66.7246 -26.5687 259° West  Level FlightAware Approximate
09:20AM 66.7009 -26.8577 258° West  Level FlightAware Approximate
09:21AM 66.6766 -27.1462 258° West  Level FlightAware Approximate
09:22AM 66.6517 -27.4340 258° West  Level FlightAware Approximate
09:23AM 66.6264 -27.7214 258° West  Level FlightAware Approximate
09:24AM 66.6005 -28.0081 257° West  Level FlightAware Approximate
09:25AM 66.5741 -28.2942 257° West  Level FlightAware Approximate
09:26AM 66.5472 -28.5797 257° West  Level FlightAware Approximate
09:27AM 66.5198 -28.8646 257° West  Level FlightAware Approximate
09:28AM 66.4919 -29.1488 256° West  Level FlightAware Approximate
09:29AM 66.4634 -29.4324 256° West  Level FlightAware Approximate
09:30AM 66.4344 -29.7154 256° West  Level FlightAware Approximate
09:31AM 66.4049 -29.9977 255° West  Level FlightAware Approximate
09:32AM 66.3749 -30.2793 255° West  Level FlightAware Approximate
09:33AM 66.3444 -30.5602 255° West  Level FlightAware Approximate
09:34AM 66.3134 -30.8405 255° West  Level FlightAware Approximate
09:35AM 66.2819 -31.1200 254° West  Level FlightAware Approximate
09:36AM 66.2499 -31.3989 254° West  Level FlightAware Approximate
09:37AM 66.2174 -31.6770 254° West  Level FlightAware Approximate
09:38AM 66.1844 -31.9544 254° West  Level FlightAware Approximate
09:39AM 66.1509 -32.2311 253° West  Level FlightAware Approximate
09:40AM 66.1169 -32.5071 253° West  Level FlightAware Approximate
09:41AM 66.0824 -32.7823 253° West  Level FlightAware Approximate
09:42AM 66.0474 -33.0567 253° West  Level FlightAware Approximate
09:43AM 66.0120 -33.3304 252° West  Level FlightAware Approximate
09:44AM 65.9761 -33.6034 252° West  Level FlightAware Approximate
09:45AM 65.9396 -33.8755 252° West  Level FlightAware Approximate
09:46AM 65.9027 -34.1469 252° West  Level FlightAware Approximate
09:47AM 65.8653 -34.4175 251° West  Level FlightAware Approximate
09:48AM 65.8275 -34.6873 251° West  Level FlightAware Approximate
09:49AM 65.7891 -34.9563 251° West  Level FlightAware Approximate
09:50AM 65.7503 -35.2245 251° West  Level FlightAware Approximate
09:51AM 65.7111 -35.4919 250° West  Level FlightAware Approximate
09:52AM 65.6713 -35.7584 250° West  Level FlightAware Approximate
09:53AM 65.6311 -36.0242 250° West  Level FlightAware Approximate
09:54AM 65.5905 -36.2891 250° West  Level FlightAware Approximate
09:55AM 65.5493 -36.5532 249° West  Level FlightAware Approximate
09:56AM 65.5078 -36.8165 249° West  Level FlightAware Approximate
09:57AM 65.4657 -37.0789 249° West  Level FlightAware Approximate
09:58AM 65.4232 -37.3405 249° West  Level FlightAware Approximate
09:59AM 65.3803 -37.6012 249° West  Level FlightAware Approximate
10:00AM 65.3369 -37.8610 248° West  Level FlightAware Approximate
10:01AM 65.2931 -38.1200 248° West  Level FlightAware Approximate
10:02AM 65.2488 -38.3782 248° West  Level FlightAware Approximate
10:03AM 65.2041 -38.6355 248° West  Level FlightAware Approximate
10:04AM 65.1589 -38.8919 247° West  Level FlightAware Approximate
10:05AM 65.1133 -39.1474 247° West  Level FlightAware Approximate
10:06AM 65.0673 -39.4020 247° West  Level FlightAware Approximate
10:07AM 65.0209 -39.6558 247° West  Level FlightAware Approximate
10:08AM 64.9740 -39.9086 246° West  Level FlightAware Approximate
10:09AM 64.9267 -40.1606 246° West  Level FlightAware Approximate
10:10AM 64.8789 -40.4117 246° West  Level FlightAware Approximate
10:11AM 64.8308 -40.6619 246° West  Level FlightAware Approximate
10:12AM 64.7822 -40.9112 246° West  Level FlightAware Approximate
10:13AM 64.7332 -41.1596 245° Southwest  Level FlightAware Approximate
10:14AM 64.6838 -41.4071 245° Southwest  Level FlightAware Approximate
10:15AM 64.6340 -41.6537 245° Southwest  Level FlightAware Approximate
10:16AM 64.5838 -41.8994 245° Southwest  Level FlightAware Approximate
10:17AM 64.5331 -42.1442 244° Southwest  Level FlightAware Approximate
10:18AM 64.4821 -42.3881 244° Southwest  Level FlightAware Approximate
10:19AM 64.4306 -42.6310 244° Southwest  Level FlightAware Approximate
10:20AM 64.3788 -42.8731 244° Southwest  Level FlightAware Approximate
10:21AM 64.3266 -43.1142 244° Southwest  Level FlightAware Approximate
10:22AM 64.2739 -43.3544 243° Southwest  Level FlightAware Approximate
10:23AM 64.2209 -43.5937 243° Southwest  Level FlightAware Approximate
10:24AM 64.1675 -43.8321 243° Southwest  Level FlightAware Approximate
10:25AM 64.1137 -44.0695 243° Southwest  Level FlightAware Approximate
10:26AM 64.0595 -44.3061 242° Southwest  Level FlightAware Approximate
10:27AM 64.0050 -44.5417 242° Southwest  Level FlightAware Approximate
10:28AM 63.9500 -44.7764 242° Southwest  Level FlightAware Approximate
10:29AM 63.8947 -45.0101 242° Southwest  Level FlightAware Approximate
10:30AM 63.8390 -45.2430 242° Southwest  Level FlightAware Approximate
10:31AM 63.7829 -45.4749 241° Southwest  Level FlightAware Approximate
10:32AM 63.7264 -45.7059 241° Southwest  Level FlightAware Approximate
10:33AM 63.6696 -45.9360 241° Southwest  Level FlightAware Approximate
10:34AM 63.6124 -46.1651 241° Southwest  Level FlightAware Approximate
10:35AM 63.5549 -46.3934 241° Southwest  Level FlightAware Approximate
10:36AM 63.4970 -46.6207 240° Southwest  Level FlightAware Approximate
10:37AM 63.4388 -46.8471 240° Southwest  Level FlightAware Approximate
10:38AM 63.3801 -47.0726 240° Southwest  Level FlightAware Approximate
10:39AM 63.3212 -47.2971 240° Southwest  Level FlightAware Approximate
10:40AM 63.2618 -47.5207 240° Southwest  Level FlightAware Approximate
10:41AM 63.2022 -47.7434 239° Southwest  Level FlightAware Approximate
10:42AM 63.1422 -47.9652 239° Southwest  Level FlightAware Approximate
10:43AM 63.0818 -48.1861 239° Southwest  Level FlightAware Approximate
10:44AM 63.0211 -48.4060 239° Southwest  Level FlightAware Approximate
10:45AM 62.9600 -48.6250 239° Southwest  Level FlightAware Approximate
10:46AM 62.8986 -48.8432 238° Southwest  Level FlightAware Approximate
10:47AM 62.8369 -49.0604 238° Southwest  Level FlightAware Approximate
10:48AM 62.7749 -49.2766 238° Southwest  Level FlightAware Approximate
10:49AM 62.7125 -49.4920 238° Southwest  Level FlightAware Approximate
10:50AM 62.6498 -49.7065 238° Southwest  Level FlightAware Approximate
10:51AM 62.5867 -49.9201 237° Southwest  Level FlightAware Approximate
10:52AM 62.5234 -50.1327 237° Southwest  Level FlightAware Approximate
10:53AM 62.4597 -50.3445 237° Southwest  Level FlightAware Approximate
10:54AM 62.3957 -50.5553 237° Southwest  Level FlightAware Approximate
10:55AM 62.3314 -50.7653 237° Southwest  Level FlightAware Approximate
10:56AM 62.2667 -50.9743 236° Southwest  Level FlightAware Approximate
10:56AM 63.4333 -55.7667 222° Southwest 450 518 35,000  Level Gander Center
10:57AM 62.2018 -51.1825 236° Southwest  Level FlightAware Approximate
10:57AM 63.3500 -56.0000 232° Southwest 450 518 35,000  Level Gander Center
10:58AM 62.1365 -51.3897 236° Southwest  Level FlightAware Approximate
10:58AM 63.3000 -56.2333 245° Southwest 450 518 35,000  Level Gander Center
10:59AM 62.0709 -51.5961 236° Southwest  Level FlightAware Approximate
10:59AM 63.2333 -56.4667 238° Southwest 440 506 35,000  Level Gander Center
11:00AM 62.0051 -51.8016 236° Southwest  Level FlightAware Approximate
11:00AM 63.1667 -56.7000 238° Southwest 440 506 35,000  Level Gander Center
11:01AM 61.9100 -51.9846 222° Southwest  Level Estimated
11:01AM 63.1000 -56.9333 238° Southwest 450 518 35,000  Level Gander Center
11:02AM 61.8146 -52.1667 222° Southwest  Level Estimated
11:02AM 63.0333 -57.1500 236° Southwest 440 506 35,000  Level Gander Center
11:03AM 62.9667 -57.3500 234° Southwest 440 506 35,000  Level Gander Center
11:04AM 62.8667 -57.5833 227° Southwest 440 506 35,000  Level Montreal Center
11:05AM 62.8000 -57.7667 232° Southwest 450 518 35,000  Level Montreal Center
11:06AM 62.7333 -58.0000 238° Southwest 430 495 35,000  Level Montreal Center
11:07AM 62.6667 -58.2167 236° Southwest 430 495 35,000  Level Montreal Center
11:08AM 62.6000 -58.4167 234° Southwest 430 495 35,000  Level Montreal Center
11:09AM 62.5333 -58.6333 236° Southwest 430 495 35,000  Level Montreal Center
11:10AM 62.4667 -58.8667 238° Southwest 430 495 35,000  Level Montreal Center
11:11AM 62.4000 -59.0500 232° Southwest 430 495 35,000  Level Montreal Center
11:12AM 62.3167 -59.2833 233° Southwest 430 495 35,000  Level Montreal Center
11:13AM 62.2500 -59.4667 232° Southwest 430 495 35,000  Level Montreal Center
11:14AM 62.1833 -59.6833 237° Southwest 430 495 35,000  Level Montreal Center
11:15AM 62.1000 -59.9167 233° Southwest 430 495 35,000  Level Montreal Center
11:16AM 62.0333 -60.0833 230° Southwest 440 506 35,000  Level Montreal Center
11:17AM 61.9667 -60.3167 239° Southwest 440 506 35,000  Level Montreal Center
11:18AM 61.9000 -60.5167 235° Southwest 440 506 35,000  Level Montreal Center
11:19AM 61.8167 -60.7167 229° Southwest 430 495 35,000  Level Montreal Center
11:20AM 61.7500 -60.9167 235° Southwest 430 495 35,000  Level Montreal Center
11:21AM 61.6667 -61.1000 226° Southwest 430 495 35,000  Level Montreal Center
11:22AM 61.6000 -61.3167 237° Southwest 430 495 35,000  Level Montreal Center
11:23AM 61.5333 -61.5333 237° Southwest 430 495 35,000  Level Montreal Center
11:24AM 61.4667 -61.7000 230° Southwest 430 495 35,000  Level Montreal Center
11:25AM 61.3833 -61.9167 231° Southwest 430 495 35,000  Level Montreal Center
11:26AM 61.3167 -62.1167 235° Southwest 430 495 35,000  Level Montreal Center
11:27AM 61.2333 -62.3000 227° Southwest 430 495 35,000  Level Montreal Center
11:28AM 61.1667 -62.5000 235° Southwest 430 495 35,000  Level Montreal Center
11:29AM 61.0833 -62.6833 227° Southwest 430 495 35,000  Level Montreal Center
11:30AM 61.0333 -62.8500 238° Southwest 430 495 35,000  Level Montreal Center
11:31AM 60.9333 -63.0167 219° Southwest 430 495 35,000  Level Montreal Center
11:32AM 60.8833 -63.2667 248° West 410 472 35,000  Level Gander Center
11:33AM 60.8167 -63.4667 236° Southwest 430 495 35,000  Level Gander Center
11:34AM 60.7333 -63.6333 224° Southwest 440 506 35,000  Level Gander Center
11:35AM 60.6667 -63.8333 236° Southwest 430 495 35,000  Level Gander Center
11:36AM 60.5833 -64.0167 227° Southwest 430 495 35,000  Level Gander Center
11:37AM 60.5000 -64.2167 230° Southwest 420 483 35,000  Level Gander Center
11:38AM 60.4333 -64.3833 231° Southwest 420 483 35,000  Level Gander Center
11:39AM 60.3667 -64.5833 236° Southwest 420 483 35,000  Level Gander Center
11:40AM 60.2667 -64.7667 222° Southwest 430 495 35,000  Level Gander Center
11:41AM 60.2000 -64.9333 231° Southwest 430 495 35,000  Level Gander Center
11:42AM 60.1167 -65.1167 228° Southwest 430 495 35,000  Level Gander Center
11:43AM 60.0333 -65.2833 225° Southwest 430 495 35,000  Level Gander Center
11:44AM 59.9333 -65.4333 217° Southwest 430 495 35,000  Level Gander Center
11:45AM 59.8500 -65.5833 222° Southwest 430 495 35,000  Level Gander Center
11:46AM 59.7667 -65.7500 225° Southwest 440 506 35,000  Level Gander Center
11:47AM 59.6667 -65.9000 217° Southwest 440 506 35,000  Level Gander Center
11:48AM 59.5833 -66.0500 222° Southwest 440 506 35,000  Level Gander Center
11:49AM 59.5000 -66.2000 222° Southwest 440 506 35,000  Level Gander Center
11:50AM 59.3833 -66.3833 219° Southwest 440 506 35,000 300 Level Gander Center
11:51AM 59.3000 -66.5333 223° Southwest 440 506 35,600 480 Climbing Gander Center
11:52AM 59.2167 -66.6833 223° Southwest 430 495 36,000 180 Climbing Gander Center
11:53AM 59.1167 -66.8333 218° Southwest 430 495 36,000  Level Gander Center
11:54AM 59.0333 -66.9833 223° Southwest 430 495 36,000  Level Gander Center
11:55AM 58.9500 -67.1333 223° Southwest 430 495 36,000  Level Gander Center
11:56AM 58.8500 -67.2833 218° Southwest 430 495 36,000  Level Gander Center
11:57AM 58.7667 -67.4167 220° Southwest 430 495 36,000  Level Gander Center
11:58AM 58.6667 -67.5667 218° Southwest 430 495 36,000  Level Gander Center
11:59AM 58.5833 -67.7167 223° Southwest 430 495 36,000  Level Gander Center
12:00PM 58.4833 -67.8500 215° Southwest 430 495 36,000  Level Gander Center
12:01PM 58.4000 -68.0000 223° Southwest 430 495 36,000  Level Gander Center
12:02PM 58.3167 -68.1333 220° Southwest 430 495 36,000  Level Gander Center
12:03PM 58.2000 -68.3167 220° Southwest 440 506 36,000  Level Gander Center
12:04PM 58.1167 -68.4167 212° Southwest 440 506 36,000  Level Gander Center
12:05PM 58.0500 -68.4500 195° South 460 529 36,000  Level Montreal Center
12:06PM 57.9667 -68.6000 224° Southwest 430 495 36,000  Level Montreal Center
12:07PM 57.8500 -68.7500 214° Southwest 430 495 36,000  Level Montreal Center
12:08PM 57.7500 -68.8667 212° Southwest 430 495 36,000  Level Montreal Center
12:09PM 57.6667 -69.0000 221° Southwest 430 495 36,000  Level Montreal Center
12:10PM 57.5667 -69.1500 219° Southwest 430 495 36,000  Level Montreal Center
12:11PM 57.4500 -69.2667 208° Southwest 430 495 36,000  Level Montreal Center
12:12PM 57.3667 -69.4000 221° Southwest 430 495 36,000  Level Montreal Center
12:13PM 57.2667 -69.5167 212° Southwest 430 495 36,000  Level Montreal Center
12:14PM 57.1667 -69.6500 216° Southwest 430 495 36,000  Level Montreal Center
12:15PM 57.0833 -69.7667 217° Southwest 430 495 36,000  Level Montreal Center
12:16PM 56.9833 -69.9000 216° Southwest 430 495 36,000  Level Montreal Center
12:17PM 56.8667 -70.0500 215° Southwest 430 495 36,000  Level Montreal Center
12:18PM 56.7667 -70.1500 209° Southwest 440 506 36,000  Level Montreal Center
12:19PM 56.6833 -70.2833 221° Southwest 440 506 36,000  Level Montreal Center
12:20PM 56.5833 -70.4333 220° Southwest 440 506 36,000  Level Montreal Center
12:21PM 56.4667 -70.5333 205° Southwest 440 506 36,000  Level Montreal Center
12:22PM 56.3833 -70.6667 222° Southwest 440 506 36,000  Level Montreal Center
12:23PM 56.2667 -70.8000 212° Southwest 440 506 36,000  Level Montreal Center
12:24PM 56.1667 -70.9167 213° Southwest 440 506 36,000  Level Montreal Center
12:25PM 56.0500 -71.0500 213° Southwest 440 506 36,000  Level Montreal Center
12:26PM 55.9500 -71.1833 217° Southwest 440 506 36,000  Level Montreal Center
12:27PM 55.8667 -71.2833 214° Southwest 440 506 36,000  Level Montreal Center
12:28PM 55.7500 -71.4167 213° Southwest 450 518 36,000  Level Montreal Center
12:29PM 55.6500 -71.5167 209° Southwest 440 506 36,000  Level Montreal Center
12:30PM 55.5500 -71.6500 217° Southwest 450 518 36,000  Level Montreal Center
12:31PM 55.4333 -71.7833 213° Southwest 450 518 36,000  Level Montreal Center
12:32PM 55.3500 -71.9000 219° Southwest 450 518 36,000  Level Montreal Center
12:33PM 55.2333 -72.0000 206° Southwest 450 518 36,000  Level Montreal Center
12:34PM 55.1167 -72.1667 219° Southwest 450 518 36,000  Level Montreal Center
12:35PM 55.0167 -72.2667 210° Southwest 460 529 36,000  Level Montreal Center
12:36PM 54.9000 -72.3833 210° Southwest 450 518 36,000  Level Montreal Center
12:37PM 54.8000 -72.5167 218° Southwest 460 529 36,000  Level Montreal Center
12:38PM 54.6833 -72.6333 210° Southwest 460 529 36,000  Level Montreal Center
12:39PM 54.6000 -72.7333 215° Southwest 450 518 36,000  Level Montreal Center
12:40PM 54.4833 -72.8667 214° Southwest 460 529 36,000  Level Montreal Center
12:41PM 54.3833 -72.9833 214° Southwest 450 518 36,000  Level Montreal Center
12:42PM 54.2667 -73.1167 214° Southwest 460 529 36,000  Level Montreal Center
12:43PM 54.1500 -73.2333 210° Southwest 460 529 36,000  Level Montreal Center
12:44PM 54.0500 -73.3167 206° Southwest 460 529 36,000  Level Montreal Center
12:45PM 53.9333 -73.4500 214° Southwest 460 529 36,000  Level Montreal Center
12:46PM 53.8167 -73.5667 211° Southwest 460 529 36,000  Level Montreal Center
12:47PM 53.7000 -73.6833 211° Southwest 470 541 36,000  Level Montreal Center
12:48PM 53.5833 -73.8000 211° Southwest 470 541 36,000  Level Montreal Center
12:49PM 53.4667 -73.9000 207° Southwest 480 552 36,000  Level Montreal Center
12:50PM 53.3500 -73.9833 203° Southwest 490 564 36,000  Level Montreal Center
12:51PM 53.2167 -74.1000 208° Southwest 490 564 36,000  Level Montreal Center
12:52PM 53.1000 -74.2000 207° Southwest 490 564 36,000  Level Montreal Center
12:53PM 52.9833 -74.2833 203° Southwest 480 552 36,000  Level Montreal Center
12:54PM 52.8833 -74.4000 215° Southwest 480 552 36,000  Level Montreal Center
12:55PM 52.7333 -74.4833 199° South 480 552 36,000  Level Montreal Center
12:56PM 52.6167 -74.5833 208° Southwest 470 541 36,000  Level Montreal Center
12:57PM 52.5167 -74.7000 215° Southwest 480 552 36,000  Level Montreal Center
12:58PM 52.3667 -74.7833 199° South 470 541 36,000  Level Montreal Center
12:59PM 52.2667 -74.8667 207° Southwest 460 529 36,000  Level Montreal Center
01:00PM 52.1500 -74.9833 212° Southwest 470 541 36,000  Level Montreal Center
01:01PM 52.0167 -75.0667 201° Southwest 470 541 36,000  Level Montreal Center
01:02PM 51.9000 -75.1500 204° Southwest 470 541 36,000  Level Montreal Center
01:03PM 51.7833 -75.2500 208° Southwest 460 529 36,000  Level Montreal Center
01:04PM 51.6667 -75.3333 204° Southwest 460 529 36,000  Level Montreal Center
01:05PM 51.5500 -75.4167 204° Southwest 460 529 36,000  Level Montreal Center
01:06PM 51.4333 -75.5000 204° Southwest 460 529 36,000  Level Montreal Center
01:07PM 51.3167 -75.6167 212° Southwest 460 529 36,000  Level Montreal Center
01:08PM 51.2000 -75.7000 204° Southwest 470 541 36,000  Level Montreal Center
01:09PM 51.1000 -75.7833 208° Southwest 470 541 36,000  Level Montreal Center
01:10PM 50.9667 -75.8833 205° Southwest 470 541 36,000  Level Montreal Center
01:11PM 50.8500 -75.9667 204° Southwest 470 541 36,000  Level Montreal Center
01:12PM 50.7333 -76.0500 204° Southwest 460 529 36,000  Level Montreal Center
01:13PM 50.6167 -76.1167 200° South 460 529 36,000  Level Montreal Center
01:14PM 50.5000 -76.2333 212° Southwest 460 529 36,000  Level Montreal Center
01:15PM 50.3833 -76.3167 204° Southwest 460 529 36,000  Level Montreal Center
01:16PM 50.2667 -76.3833 200° South 470 541 36,000  Level Montreal Center
01:17PM 50.1500 -76.4667 205° Southwest 460 529 36,000  Level Montreal Center
01:18PM 50.0167 -76.5667 206° Southwest 470 541 36,000  Level Montreal Center
01:19PM 49.9000 -76.6500 205° Southwest 470 541 36,000  Level Montreal Center
01:20PM 49.7833 -76.7167 200° South 460 529 36,000  Level Montreal Center
01:21PM 49.6667 -76.8167 209° Southwest 470 541 36,000  Level Montreal Center
01:22PM 49.5500 -76.9000 205° Southwest 450 518 36,000  Level Montreal Center
01:23PM 49.4333 -76.9667 200° South 470 541 36,000  Level Montreal Center
01:24PM 49.3167 -77.0500 205° Southwest 470 541 36,000  Level Montreal Center
01:25PM 49.2000 -77.1500 209° Southwest 440 506 36,000  Level Montreal Center
01:26PM 49.0833 -77.2167 201° Southwest 460 529 36,000  Level Montreal Center
01:27PM 48.9667 -77.3000 205° Southwest 450 518 36,000  Level Montreal Center
01:28PM 48.8500 -77.3667 201° Southwest 460 529 36,000  Level Montreal Center
01:29PM 48.7333 -77.4500 205° Southwest 450 518 36,000  Level Montreal Center
01:30PM 48.6167 -77.5167 201° Southwest 440 506 36,000  Level Montreal Center
01:31PM 48.5167 -77.5833 204° Southwest 440 506 36,000  Level Montreal Center
01:32PM 48.4000 -77.6833 210° Southwest 440 506 36,000  Level Montreal Center
01:33PM 48.2833 -77.7667 205° Southwest 440 506 36,000  Level Montreal Center
01:34PM 48.1667 -77.8333 201° Southwest 440 506 36,000  Level Montreal Center
01:35PM 48.0667 -77.9000 204° Southwest 440 506 36,000  Level Montreal Center
01:36PM 47.9333 -77.9667 199° South 440 506 36,000  Level Montreal Center
01:37PM 47.8167 -78.0167 196° South 440 506 36,000  Level Montreal Center
01:38PM 47.7000 -78.0833 201° Southwest 440 506 36,000  Level Montreal Center
01:39PM 47.5833 -78.1500 201° Southwest 440 506 36,000  Level Montreal Center
01:40PM 47.4833 -78.2333 209° Southwest 440 506 36,000  Level Montreal Center
01:41PM 47.3667 -78.3000 201° Southwest 450 518 36,000  Level Montreal Center
01:42PM 47.2500 -78.3667 201° Southwest 440 506 36,000  Level Montreal Center
01:43PM 47.1333 -78.4333 201° Southwest 440 506 36,000  Level Montreal Center
01:44PM 47.0000 -78.5000 199° South 450 518 36,000  Level Montreal Center
01:45PM 46.9000 -78.5500 199° South 450 518 36,000  Level Montreal Center
01:45PM 46.8333 -78.5667 190° South 450 518 36,000  Level Toronto Center
01:46PM 46.7167 -78.6333 201° Southwest 460 529 36,000  Level Toronto Center
01:47PM 46.5833 -78.7167 203° Southwest 450 518 36,000  Level Toronto Center
01:48PM 46.4667 -78.7667 196° South 460 529 36,000  Level Toronto Center
01:49PM 46.3500 -78.8333 202° Southwest 460 529 36,000  Level Toronto Center
01:50PM 46.2333 -78.9167 206° Southwest 460 529 36,000  Level Toronto Center
01:51PM 46.1167 -78.9667 197° South 460 529 36,000  Level Toronto Center
01:52PM 45.9833 -79.0333 199° South 460 529 36,000  Level Toronto Center
01:58PM 45.3322 -79.4038 199° South 455 524 36,000  Level FlightAware ADS-B (CYKF)
01:59PM 45.1857 -79.4806 200° South 452 520 36,000  Level FlightAware ADS-B (CYKF)
02:00PM 45.0415 -79.5560 200° South 452 520 36,000  Level FlightAware ADS-B (CYKF)
02:02PM 44.9433 -79.6071 200° South 454 522 36,000  Level FlightAware ADS-B (CYKF)
02:04PM 44.7115 -79.7268 200° South 455 524 36,000  Level FlightAware ADS-B (CYKF)
02:05PM 44.5091 -79.8570 205° Southwest 435 501 36,000  Level FlightAware ADS-B (CYKF)
02:06PM 44.5066 -79.8593 213° Southwest 435 501 36,000  Level FlightAware ADS-B (CYKF)
02:07PM 44.3979 -79.9592 213° Southwest 436 502 36,000  Level FlightAware ADS-B (CYKF)
02:08PM 44.2161 -80.1221 213° Southwest 434 499 36,000  Level FlightAware ADS-B (CYKF)
02:10PM 44.0497 -80.2700 213° Southwest 434 499 36,000  Level FlightAware ADS-B (CYKF)
02:10PM 43.9943 -80.3191 213° Southwest 433 498 36,000  Level FlightAware ADS-B (CYKF)
02:11PM 43.9775 -80.3340 212° Southwest 433 498 36,000  Level FlightAware ADS-B (CYHM)
02:11PM 43.8495 -80.4468 212° Southwest 432 497 36,000  Level FlightAware ADS-B (CYHM)
02:12PM 43.7837 -80.5045 212° Southwest 431 496 36,000  Level FlightAware ADS-B (CYHM)
02:13PM 43.7151 -80.5647 212° Southwest 433 498 36,000  Level FlightAware ADS-B (CYHM)
02:13PM 43.6478 -80.6234 212° Southwest 436 502 36,000  Level FlightAware ADS-B (CYHM)
02:14PM 43.5890 -80.6747 212° Southwest 437 503 36,000  Level FlightAware ADS-B (CYKF)
02:15PM 43.5244 -80.7308 212° Southwest 439 505 36,000  Level FlightAware ADS-B (CYHM)
02:15PM 43.4777 -80.7714 212° Southwest 437 503 36,000  Level FlightAware ADS-B (CYKF)
02:16PM 43.4543 -80.7916 212° Southwest 437 503 36,000  Level FlightAware ADS-B (CYHM)
02:17PM 43.3027 -80.9224 212° Southwest 435 501 36,000  Level FlightAware ADS-B (CYKF)
02:17PM 43.2517 -80.9662 212° Southwest 436 502 36,000  Level FlightAware ADS-B (CYKF)
02:18PM 43.1629 -81.0423 212° Southwest 436 502 36,000  Level FlightAware ADS-B (CYKF)
02:19PM 43.0955 -81.0999 212° Southwest 435 501 36,000  Level FlightAware ADS-B (CYKF)
02:19PM 43.0368 -81.1478 211° Southwest 441 507 36,000  Level FlightAware ADS-B (CYKF)
02:20PM 42.9975 -81.1726 205° Southwest 444 511 36,000  Level FlightAware ADS-B (CYKF)
02:23PM 42.6331 -81.3984 205° Southwest 446 513 36,000  Level FlightAware ADS-B (CYKF)
02:24PM 42.5017 -81.4786 204° Southwest 442 509 36,000  Level FlightAware ADS-B (CYKF)
02:25PM 42.3932 -81.5446 204° Southwest 443 510 36,000  Level FlightAware ADS-B (CYKF)
02:26PM 42.2975 -81.6025 204° Southwest 442 509 36,000  Level FlightAware ADS-B (CYKF)
02:28PM 42.0592 -81.7462 204° Southwest 444 511 36,000  Level FlightAware ADS-B (CYKF)
02:29PM 42.0061 -81.7775 204° Southwest 442 509 36,000  Level Cleveland Center
02:30PM 41.8928 -81.8458 204° Southwest 443 510 36,000  Level Cleveland Center
02:31PM 41.7808 -81.9108 203° Southwest 439 505 36,000  Level Cleveland Center
02:32PM 41.6692 -81.9778 204° Southwest 439 505 36,000  Level Cleveland Center
02:33PM 41.5569 -82.0442 204° Southwest 439 505 36,000  Level Cleveland Center
02:34PM 41.4258 -82.1217 204° Southwest 441 507 36,000  Level Cleveland Center
02:35PM 41.3092 -82.1794 200° South 449 517 36,000  Level Cleveland Center
02:38PM 40.9283 -82.3157 200° South 454 522 36,000  Level FlightAware ADS-B
02:42PM 40.4153 -82.4965 195° South 453 521 36,000  Level FlightAware ADS-B
02:43PM 40.2806 -82.5435 195° South 453 521 36,000  Level FlightAware ADS-B
02:44PM 40.1923 -82.5737 195° South 459 528 36,000  Level FlightAware ADS-B
02:45PM 40.1163 -82.5890 189° South 469 540 36,000  Level FlightAware ADS-B
02:45PM 40.0471 -82.5941 183° South 472 543 36,000  Level FlightAware ADS-B
02:46PM 39.9471 -82.6020 183° South 473 544 36,000  Level FlightAware ADS-B
02:47PM 39.8848 -82.6065 183° South 473 544 36,000  Level FlightAware ADS-B
02:47PM 39.8363 -82.6099 183° South 473 544 36,000  Level FlightAware ADS-B
02:48PM 39.6871 -82.6199 183° South 478 550 36,000  Level FlightAware ADS-B (KPMH)
02:48PM 39.6206 -82.6245 183° South 480 552 36,000  Level FlightAware ADS-B (KPMH)
02:49PM 39.5237 -82.6310 183° South 481 554 36,000  Level FlightAware ADS-B (KPMH)
02:50PM 39.3559 -82.6422 183° South 478 550 36,000  Level FlightAware ADS-B (KPMH)
02:51PM 39.2568 -82.6487 183° South 473 544 36,000  Level FlightAware ADS-B (KPMH)
02:52PM 39.1915 -82.6530 183° South 473 544 36,000  Level FlightAware ADS-B (KPMH)
02:52PM 39.0962 -82.6593 183° South 476 548 36,000  Level FlightAware ADS-B (KPMH)
02:53PM 39.0273 -82.6639 183° South 477 549 36,000  Level FlightAware ADS-B (KPMH)
02:53PM 38.9606 -82.6683 183° South 478 550 36,000  Level FlightAware ADS-B (KPMH)
02:54PM 38.8284 -82.6771 183° South 477 549 36,000  Level FlightAware ADS-B (KPMH)
02:55PM 38.7337 -82.6833 183° South 476 548 36,000  Level FlightAware ADS-B (KPMH)
02:56PM 38.6591 -82.6881 183° South 476 548 36,000  Level FlightAware ADS-B (KPMH)
02:56PM 38.5761 -82.6917 183° South 474 545 36,000  Level Indianapolis Center
02:57PM 38.4436 -82.7014 183° South 475 547 36,000  Level Indianapolis Center
02:58PM 38.3114 -82.7072 182° South 475 547 36,000  Level Indianapolis Center
02:59PM 38.1583 -82.7203 184° South 472 543 36,000  Level Indianapolis Center
03:00PM 38.0278 -82.7297 183° South 468 539 36,000  Level Indianapolis Center
03:01PM 37.8958 -82.7392 183° South 472 543 36,000  Level Indianapolis Center
03:03PM 37.7636 -82.7467 183° South 474 545 36,000  Level Indianapolis Center
03:04PM 37.6369 -82.7856 194° South 469 540 36,000  Level Indianapolis Center
03:05PM 37.5228 -82.8544 206° Southwest 458 527 36,000  Level Indianapolis Center
03:06PM 37.3911 -82.9417 208° Southwest 458 527 36,000  Level Indianapolis Center
03:07PM 37.2778 -83.0153 207° Southwest 459 528 36,000  Level Indianapolis Center
03:08PM 37.1678 -83.0883 208° Southwest 452 520 36,000  Level Indianapolis Center
03:09PM 37.0564 -83.1608 207° Southwest 454 522 36,000  Level Indianapolis Center
03:10PM 36.9258 -83.2447 207° Southwest 456 525 36,000  Level Indianapolis Center
03:11PM 36.8131 -83.3172 207° Southwest 459 528 36,000  Level Indianapolis Center
03:12PM 36.7006 -83.3881 207° Southwest 456 525 36,000  Level Indianapolis Center
03:13PM 36.5886 -83.4589 207° Southwest 452 520 36,000  Level Indianapolis Center
03:14PM 36.4664 -83.5392 208° Southwest 444 511 36,000  Level Indianapolis Center
03:15PM 36.3544 -83.6111 207° Southwest 449 517 36,000  Level Indianapolis Center
03:16PM 36.2428 -83.6819 207° Southwest 450 518 36,000  Level Indianapolis Center
03:17PM 36.1294 -83.7511 206° Southwest 452 520 36,000  Level Indianapolis Center
03:18PM 36.0167 -83.8225 207° Southwest 452 520 36,000  Level Indianapolis Center
03:19PM 35.8992 -83.8947 206° Southwest 452 520 36,000  Level Indianapolis Center
03:20PM 35.7433 -83.9339 192° South 456 525 36,000  Level Atlanta Center
03:21PM 35.6203 -83.9647 192° South 456 525 36,000  Level Atlanta Center
03:22PM 35.4950 -83.9981 192° South 456 525 36,000  Level Atlanta Center
03:23PM 35.3697 -84.0261 190° South 461 531 36,000  Level Atlanta Center
03:24PM 35.2508 -84.0567 192° South 456 525 36,000  Level Atlanta Center
03:25PM 35.1258 -84.0844 190° South 456 525 36,000  Level Atlanta Center
03:26PM 35.0006 -84.1147 191° South 456 525 36,000  Level Atlanta Center
03:27PM 34.8794 -84.1450 192° South 451 519 36,000  Level Atlanta Center
03:28PM 34.7564 -84.1728 191° South 451 519 36,000  Level Atlanta Center
03:29PM 34.6331 -84.2003 190° South 446 513 36,000  Level Atlanta Center
03:30PM 34.5078 -84.2278 190° South 453 521 36,000  Level Atlanta Center
03:31PM 34.4014 -84.2553 192° South 453 521 36,000  Level Atlanta Center
03:32PM 34.2783 -84.2850 191° South 447 514 36,000  Level Atlanta Center
03:33PM 34.1550 -84.3125 190° South 447 514 36,000  Level Atlanta Center
03:34PM 34.0192 -84.3469 192° South 458 527 36,000  Level Atlanta Center
03:35PM 33.9022 -84.3742 191° South 446 513 36,000  Level Atlanta Center
03:36PM 33.7769 -84.4036 191° South 446 513 36,000  Level Atlanta Center
03:37PM 33.6517 -84.4306 190° South 452 520 36,000  Level Atlanta Center
03:38PM 33.5286 -84.4350 182° South 446 513 36,000  Level Atlanta Center
03:39PM 33.4011 -84.4344 180° South 452 520 36,000  Level Atlanta Center
03:40PM 33.2864 -84.4339 180° South 457 526 36,000  Level Atlanta Center
03:41PM 33.1569 -84.4308 179° South 457 526 36,000  Level Atlanta Center
03:42PM 33.0297 -84.4278 179° South 457 526 36,000  Level Atlanta Center
03:43PM 32.9003 -84.4272 180° South 457 526 36,000 -300 Level Atlanta Center
03:44PM 32.7625 -84.4192 177° South 457 526 35,500 -540 Descending Atlanta Center
03:45PM 32.6394 -84.4139 178° South 457 526 35,000 -300 Descending Atlanta Center
03:46PM 32.5078 -84.4133 180° South 457 526 35,000  Level Atlanta Center
03:47PM 32.3786 -84.4103 179° South 462 532 35,000  Level Atlanta Center
03:48PM 32.2469 -84.4097 180° South 462 532 35,000  Level Atlanta Center
03:50PM 32.0386 -84.4022 178° South 459 528 35,000  Level Jacksonville Center
03:51PM 31.9111 -84.4003 179° South 459 528 35,000  Level Jacksonville Center
03:52PM 31.7839 -84.4006 180° South 459 528 35,000  Level Jacksonville Center
03:53PM 31.6525 -84.3958 178° South 459 528 35,000  Level Jacksonville Center
03:59PM 30.8690 -84.3799 178° South 455 524 35,000  Level FlightAware ADS-B (KTLH)
04:00PM 30.7598 -84.3780 179° South 456 525 35,000  Level FlightAware ADS-B (KTLH)
04:01PM 30.6769 -84.3738 178° South 467 537 35,000  Level FlightAware ADS-B (KTLH)
04:01PM 30.5744 -84.3528 170° South 481 554 35,000  Level FlightAware ADS-B (KTLH)
04:05PM 30.1307 -84.0955 153° Southeast 503 579 35,000  Level FlightAware ADS-B (KTLH)
04:05PM 30.0491 -84.0424 151° Southeast 506 582 35,000  Level FlightAware ADS-B (KTLH)
04:06PM 29.9712 -83.9919 151° Southeast 505 581 35,000  Level FlightAware ADS-B (KTLH)
04:07PM 29.9043 -83.9486 151° Southeast 504 580 35,000  Level FlightAware ADS-B (KTLH)
04:07PM 29.8301 -83.9005 151° Southeast 504 580 35,000  Level FlightAware ADS-B (KTLH)
04:08PM 29.7301 -83.8359 151° Southeast 505 581 35,000  Level FlightAware ADS-B (KTLH)
04:09PM 29.6536 -83.7889 151° Southeast 501 577 35,000  Level Jacksonville Center
04:10PM 29.5311 -83.7089 150° Southeast 501 577 35,000  Level Jacksonville Center
04:11PM 29.4083 -83.6339 152° Southeast 496 571 35,000  Level Jacksonville Center
04:17PM 28.6323 -83.1366 152° Southeast 500 575 35,000  Level FlightAware ADS-B (KMCO)
04:19PM 28.3996 -82.9906 151° Southeast 500 575 35,000  Level FlightAware ADS-B (KMCO)
04:20PM 28.2714 -82.9104 151° Southeast 502 578 35,000  Level FlightAware ADS-B (KMCO)
04:22PM 28.0423 -82.7677 151° Southeast 501 577 35,000  Level FlightAware ADS-B (KMCO)
04:24PM 27.8301 -82.6336 151° Southeast 508 585 35,000  Level FlightAware ADS-B (KMCO)
04:24PM 27.7482 -82.5863 153° Southeast 490 564 35,000  Level FlightAware ADS-B (KMCO)
04:25PM 27.7067 -82.5775 169° South 475 547 35,000  Level FlightAware ADS-B (KMCO)
04:30PM 26.9482 -82.5650 179° South 472 543 35,000  Level FlightAware ADS-B (KMCO)
04:33PM 26.5878 -82.5595 179° South 470 541 35,000  Level FlightAware ADS-B (KMCO)
04:34PM 26.5262 -82.5585 179° South 469 540 35,000  Level FlightAware ADS-B (KMCO)
04:34PM 26.4374 -82.5571 179° South 462 532 35,000  Level FlightAware ADS-B (KMCO)
04:35PM 26.3522 -82.5558 179° South 464 534 35,000  Level FlightAware ADS-B (KMCO)
04:36PM 26.2299 -82.5538 179° South 463 533 35,000  Level FlightAware ADS-B (KMCO)
04:37PM 26.1331 -82.5522 179° South 465 535 35,000  Level FlightAware ADS-B (KMCO)
04:38PM 26.0211 -82.5504 179° South 466 536 35,000  Level FlightAware ADS-B (KMCO)
04:38PM 25.9420 -82.5491 179° South 465 535 35,000  Level FlightAware ADS-B (KMCO)
04:39PM 25.8363 -82.5475 179° South 465 535 35,000  Level FlightAware ADS-B (KMCO)
04:40PM 25.7688 -82.5464 179° South 465 535 35,000  Level FlightAware ADS-B (KMCO)
04:40PM 25.6893 -82.5452 179° South 465 535 35,000  Level FlightAware ADS-B (KMCO)
04:41PM 25.6075 -82.5438 179° South 464 534 35,000 -540 Level FlightAware ADS-B (KMCO)
04:42PM 25.4907 -82.5419 179° South 461 531 34,300 -900 Descending FlightAware ADS-B (KMCO)
04:42PM 25.4026 -82.5405 179° South 440 506 33,700 -960 Descending FlightAware ADS-B (KMCO)
04:44PM 25.2644 -82.5397 179° South 451 519 32,400 -1,020 Descending Miami Center
04:45PM 25.1456 -82.5389 180° South 440 506 31,400 -1,020 Descending Miami Center
04:46PM 25.0244 -82.5378 180° South 435 501 30,400 -960 Descending Miami Center
04:47PM 24.9056 -82.5347 179° South 435 501 29,500 -960 Descending Miami Center
04:48PM 24.7908 -82.5339 180° South 430 495 28,500 -1,020 Descending Miami Center
04:49PM 24.6761 -82.5333 180° South 424 488 27,500 -1,020 Descending Miami Center
04:50PM 24.5656 -82.5306 179° South 419 482 26,500 -1,020 Descending Miami Center
04:51PM 24.4508 -82.5297 180° South 419 482 25,500 -1,020 Descending Miami Center
04:52PM 24.3400 -82.5292 180° South 413 475 24,500 -1,020 Descending Miami Center
04:53PM 24.2317 -82.5289 180° South 400 460 23,500 -1,020 Descending Miami Center
04:54PM 24.1231 -82.5239 178° South 400 460 22,500 -780 Descending Miami Center
04:55PM 24.0169 -82.5214 179° South 390 449 22,000 -540 Descending Miami Center
04:57PM 23.7966 -82.4876 173° South  Level FlightAware Approximate
05:04PM 22.9891 -82.4091 180° South  Level Estimated
05:05PM 22.9891 -82.4091 180° South  Level Estimated
05:06PM 22.9891 -82.4091 180° South  Level Estimated
05:07PM 22.9891 -82.4091 180° South  Level Estimated
05:08PM 22.9891 -82.4091 180° South  Level Estimated
05:09PM 22.9891 -82.4091 180° South  Level Estimated
05:10PM 22.9891 -82.4091 180° South  Level Estimated
05:11PM 22.9891 -82.4091 180° South  Level Estimated
05:12PM 22.9891 -82.4091 180° South  Level Estimated
05:13PM 22.9891 -82.4091 180° South  Level Estimated
05:14PM 22.9891 -82.4091 180° South  Level Estimated
05:15PM 22.9891 -82.4091 180° South  Level Estimated
05:16PM 22.9891 -82.4091 180° South  Level Estimated
05:17PM 22.9891 -82.4091 180° South  Level Estimated
05:18PM 22.9891 -82.4091 180° South  Level Estimated
05:19PM 22.9891 -82.4091 180° South  Level Estimated
05:20PM 22.9891 -82.4091 180° South  Level Estimated
05:21PM 22.9891 -82.4091 180° South  Level Estimated
05:22PM 22.9891 -82.4091 180° South  Level Estimated
05:23PM 22.9891 -82.4091 180° South  Level Estimated
05:24PM 22.9891 -82.4091 180° South  Level Estimated
05:25PM 22.9891 -82.4091 180° South  Level Estimated